createdAt,value
2023-02-01T00:01:07.796Z,12.50
2023-02-01T00:02:10.865Z,12.50
2023-02-01T00:03:15.057Z,7.60
2023-02-01T00:04:20.284Z,11.20
2023-02-01T00:05:22.837Z,11.30
2023-02-01T00:06:25.576Z,10.55
2023-02-01T00:07:28.008Z,12.70
2023-02-01T00:08:32.400Z,10.30
2023-02-01T00:09:36.050Z,11.70
2023-02-01T00:10:39.004Z,10.60
2023-02-01T00:11:41.339Z,9.70
2023-02-01T00:12:44.027Z,11.90
2023-02-01T00:13:46.857Z,10.90
2023-02-01T00:14:49.517Z,10.55
2023-02-01T00:15:51.945Z,9.80
2023-02-01T00:16:54.835Z,10.91
2023-02-01T00:17:57.255Z,10.20
2023-02-01T00:19:05.913Z,9.90
2023-02-01T00:20:10.719Z,9.20
2023-02-01T00:21:17.094Z,10.10
2023-02-01T00:22:20.250Z,10.60
2023-02-01T00:23:23.403Z,10.73
2023-02-01T00:24:26.724Z,9.70
2023-02-01T00:25:30.100Z,9.10
2023-02-01T00:26:34.747Z,7.90
2023-02-01T00:27:38.832Z,8.90
2023-02-01T00:28:41.629Z,7.00
2023-02-01T00:29:45.423Z,10.18
2023-02-01T00:30:48.146Z,7.90
2023-02-01T00:31:53.005Z,10.45
2023-02-01T00:32:56.780Z,8.00
2023-02-01T00:34:00.559Z,7.80
2023-02-01T00:35:04.515Z,9.00
2023-02-01T00:36:08.955Z,10.10
2023-02-01T00:37:11.577Z,9.30
2023-02-01T00:38:14.583Z,9.80
2023-02-01T00:39:18.306Z,8.73
2023-02-01T00:40:22.760Z,8.30
2023-02-01T00:41:26.463Z,8.50
2023-02-01T00:42:29.489Z,7.80
2023-02-01T00:43:32.702Z,7.09
2023-02-01T00:44:36.450Z,7.00
2023-02-01T00:45:39.091Z,9.20
2023-02-01T00:46:42.111Z,8.00
2023-02-01T00:47:44.689Z,8.90
2023-02-01T00:48:47.526Z,8.60
2023-02-01T00:49:51.007Z,7.30
2023-02-01T00:50:53.738Z,8.10
2023-02-01T00:51:56.234Z,8.80
2023-02-01T00:53:00.293Z,8.90
2023-02-01T00:54:04.013Z,7.50
2023-02-01T00:55:08.711Z,8.00
2023-02-01T00:56:12.342Z,8.50
2023-02-01T00:57:15.492Z,6.70
2023-02-01T00:58:18.251Z,8.30
2023-02-01T00:59:22.059Z,7.64
2023-02-01T01:00:25.525Z,8.90
2023-02-01T01:01:28.785Z,7.40
2023-02-01T01:02:32.287Z,7.60
2023-02-01T01:03:38.338Z,8.70
2023-02-01T01:04:41.574Z,6.60
2023-02-01T01:05:47.768Z,8.30
2023-02-01T01:06:50.533Z,7.20
2023-02-01T01:07:53.800Z,7.40
2023-02-01T01:08:58.571Z,9.30
2023-02-01T01:10:01.739Z,9.10
2023-02-01T01:11:06.669Z,9.00
2023-02-01T01:12:09.883Z,7.30
2023-02-01T01:13:12.928Z,7.90
2023-02-01T01:14:16.210Z,9.30
2023-02-01T01:15:19.042Z,8.80
2023-02-01T01:16:22.618Z,6.27
2023-02-01T01:17:25.483Z,5.40
2023-02-01T01:18:28.729Z,9.10
2023-02-01T01:19:32.320Z,6.60
2023-02-01T01:20:35.814Z,8.30
2023-02-01T01:21:38.817Z,7.80
2023-02-01T01:22:41.480Z,7.73
2023-02-01T01:23:45.307Z,8.18
2023-02-01T01:24:48.013Z,8.50
2023-02-01T01:25:51.711Z,7.60
2023-02-01T01:26:54.404Z,8.80
2023-02-01T01:27:58.105Z,8.80
2023-02-01T01:29:00.644Z,8.40
2023-02-01T01:30:04.178Z,9.40
2023-02-01T01:32:21.187Z,9.70
2023-02-01T01:33:23.901Z,8.50
2023-02-01T01:34:26.898Z,7.00
2023-02-01T01:35:31.337Z,8.00
2023-02-01T01:36:33.951Z,7.80
2023-02-01T01:37:38.632Z,7.00
2023-02-01T01:38:41.983Z,8.80
2023-02-01T01:39:44.709Z,7.30
2023-02-01T01:40:50.137Z,8.50
2023-02-01T01:41:53.104Z,8.20
2023-02-01T01:42:57.644Z,5.00
2023-02-01T01:44:02.074Z,7.27
2023-02-01T01:45:25.431Z,8.20
2023-02-01T01:46:35.812Z,7.50
2023-02-01T01:49:03.149Z,8.00
2023-02-01T01:50:07.788Z,7.40
2023-02-01T01:51:13.238Z,7.20
2023-02-01T01:52:16.313Z,6.90
2023-02-01T01:53:21.330Z,8.40
2023-02-01T01:55:48.930Z,8.50
2023-02-01T01:56:53.111Z,7.70
2023-02-01T01:58:02.639Z,7.70
2023-02-01T01:59:06.335Z,7.80
2023-02-01T02:00:11.754Z,7.70
2023-02-01T02:01:17.411Z,8.50
2023-02-01T02:02:19.917Z,7.10
2023-02-01T02:08:04.839Z,7.20
2023-02-01T02:09:07.341Z,7.36
2023-02-01T02:10:11.992Z,8.00
2023-02-01T02:14:24.542Z,7.50
2023-02-01T02:15:27.903Z,6.60
2023-02-01T02:16:54.101Z,7.90
2023-02-01T02:19:32.432Z,7.90
2023-02-01T02:22:36.720Z,8.90
2023-02-01T02:24:04.283Z,9.80
2023-02-01T02:25:21.187Z,9.10
2023-02-01T02:26:30.483Z,10.30
2023-02-01T02:27:58.336Z,9.10
2023-02-01T02:29:21.530Z,10.80
2023-02-01T02:30:55.220Z,0.70
2023-02-01T02:32:23.321Z,8.00
2023-02-01T02:33:42.103Z,9.70
2023-02-01T02:34:55.217Z,9.50
2023-02-01T02:36:34.661Z,9.40
2023-02-01T02:37:52.032Z,9.90
2023-02-01T02:39:21.541Z,8.80
2023-02-01T02:42:11.212Z,5.40
2023-02-01T02:43:42.783Z,9.50
2023-02-01T02:45:13.416Z,9.20
2023-02-01T02:46:43.553Z,7.90
2023-02-01T02:49:30.690Z,8.90
2023-02-01T02:50:56.064Z,10.60
2023-02-01T02:52:24.508Z,9.20
2023-02-01T02:54:04.002Z,10.40
2023-02-01T02:55:07.025Z,8.70
2023-02-01T02:56:28.431Z,5.00
2023-02-01T02:57:57.917Z,9.70
2023-02-01T02:59:19.893Z,10.20
2023-02-01T03:00:44.717Z,9.40
2023-02-01T03:02:05.924Z,9.30
2023-02-01T03:03:27.333Z,8.90
2023-02-01T03:04:30.627Z,9.40
2023-02-01T03:05:35.965Z,9.30
2023-02-01T03:06:41.293Z,9.00
2023-02-01T03:07:50.728Z,9.00
2023-02-01T03:08:56.719Z,9.40
2023-02-01T03:10:01.620Z,9.50
2023-02-01T03:11:08.589Z,8.60
2023-02-01T03:12:31.046Z,7.90
2023-02-01T03:13:49.651Z,6.10
2023-02-01T03:14:54.543Z,7.80
2023-02-01T03:16:03.999Z,8.10
2023-02-01T03:17:09.423Z,8.50
2023-02-01T03:18:16.604Z,9.10
2023-02-01T03:19:22.586Z,7.30
2023-02-01T03:20:25.638Z,8.00
2023-02-01T03:21:45.036Z,7.20
2023-02-01T03:22:50.195Z,8.10
2023-02-01T03:23:53.947Z,8.40
2023-02-01T03:25:07.399Z,7.90
2023-02-01T03:26:12.119Z,7.40
2023-02-01T03:28:45.737Z,8.00
2023-02-01T03:31:25.766Z,7.30
2023-02-01T03:32:29.306Z,7.00
2023-02-01T03:33:31.730Z,5.40
2023-02-01T03:34:35.486Z,8.90
2023-02-01T03:35:48.166Z,7.60
2023-02-01T03:37:02.950Z,7.20
2023-02-01T03:39:49.623Z,5.90
2023-02-01T03:42:41.420Z,6.00
2023-02-01T03:44:15.977Z,4.20
2023-02-01T03:45:25.431Z,7.30
2023-02-01T03:46:39.716Z,7.90
2023-02-01T03:47:44.294Z,6.60
2023-02-01T03:48:47.168Z,3.90
2023-02-01T03:51:07.827Z,6.70
2023-02-01T03:52:13.817Z,5.90
2023-02-01T03:53:22.152Z,7.00
2023-02-01T03:54:26.355Z,6.90
2023-02-01T03:55:30.848Z,8.20
2023-02-01T03:56:35.320Z,7.50
2023-02-01T03:57:41.342Z,7.10
2023-02-01T03:58:45.661Z,7.60
2023-02-01T03:59:48.876Z,6.80
2023-02-01T04:00:53.931Z,8.30
2023-02-01T04:01:57.558Z,5.30
2023-02-01T04:03:00.524Z,7.60
2023-02-01T04:04:03.117Z,7.00
2023-02-01T04:05:06.345Z,6.50
2023-02-01T04:06:10.153Z,5.10
2023-02-01T04:07:12.733Z,5.73
2023-02-01T04:08:15.815Z,7.30
2023-02-01T04:09:18.519Z,7.20
2023-02-01T04:10:22.212Z,6.60
2023-02-01T04:11:25.234Z,6.80
2023-02-01T04:12:28.455Z,7.10
2023-02-01T04:13:31.445Z,7.80
2023-02-01T04:14:34.507Z,7.10
2023-02-01T04:15:36.868Z,6.82
2023-02-01T04:16:40.581Z,7.10
2023-02-01T04:17:44.485Z,6.60
2023-02-01T04:18:47.220Z,6.40
2023-02-01T04:19:49.899Z,7.50
2023-02-01T04:20:53.379Z,7.20
2023-02-01T04:21:56.332Z,7.10
2023-02-01T04:22:59.761Z,7.30
2023-02-01T04:24:02.207Z,6.20
2023-02-01T04:25:06.312Z,6.90
2023-02-01T04:26:09.310Z,6.50
2023-02-01T04:27:13.363Z,7.40
2023-02-01T04:28:16.111Z,7.00
2023-02-01T04:29:19.209Z,6.82
2023-02-01T04:30:22.385Z,8.00
2023-02-01T04:31:28.191Z,5.70
2023-02-01T04:32:31.612Z,7.10
2023-02-01T04:33:33.917Z,7.50
2023-02-01T04:34:36.217Z,7.10
2023-02-01T04:35:39.714Z,0.40
2023-02-01T04:36:42.337Z,6.50
2023-02-01T04:37:44.653Z,6.80
2023-02-01T04:38:47.574Z,5.50
2023-02-01T04:39:50.176Z,7.00
2023-02-01T04:40:53.206Z,7.64
2023-02-01T04:41:55.667Z,5.90
2023-02-01T04:42:58.088Z,9.20
2023-02-01T04:44:00.609Z,6.10
2023-02-01T04:45:04.911Z,5.80
2023-02-01T04:46:08.072Z,5.80
2023-02-01T04:47:10.537Z,6.40
2023-02-01T04:48:12.918Z,6.80
2023-02-01T04:49:16.110Z,7.00
2023-02-01T04:50:18.832Z,7.80
2023-02-01T04:51:21.833Z,6.70
2023-02-01T04:52:24.787Z,8.50
2023-02-01T04:53:27.099Z,8.55
2023-02-01T04:54:29.440Z,6.70
2023-02-01T04:55:31.843Z,7.40
2023-02-01T04:56:38.009Z,7.30
2023-02-01T04:57:40.876Z,7.50
2023-02-01T04:58:44.285Z,7.30
2023-02-01T04:59:46.744Z,6.70
2023-02-01T05:00:51.008Z,7.30
2023-02-01T05:01:53.371Z,7.00
2023-02-01T05:02:55.824Z,7.20
2023-02-01T05:03:58.721Z,7.70
2023-02-01T05:05:01.771Z,7.82
2023-02-01T05:06:05.614Z,5.50
2023-02-01T05:07:09.008Z,6.10
2023-02-01T05:08:12.003Z,8.30
2023-02-01T05:09:14.416Z,6.60
2023-02-01T05:10:17.192Z,6.70
2023-02-01T05:11:38.252Z,7.50
2023-02-01T05:12:59.139Z,7.70
2023-02-01T05:14:02.614Z,7.30
2023-02-01T05:15:06.999Z,6.50
2023-02-01T05:16:10.990Z,6.50
2023-02-01T05:17:13.452Z,6.00
2023-02-01T05:18:17.055Z,6.50
2023-02-01T05:19:19.600Z,7.00
2023-02-01T05:20:23.419Z,7.36
2023-02-01T05:21:26.661Z,7.00
2023-02-01T05:22:29.123Z,8.10
2023-02-01T05:23:31.423Z,4.40
2023-02-01T05:24:33.919Z,8.00
2023-02-01T05:25:52.406Z,11.10
2023-02-01T05:26:54.932Z,16.00
2023-02-01T05:27:58.525Z,21.20
2023-02-01T05:29:01.558Z,25.30
2023-02-01T05:30:05.838Z,27.50
2023-02-01T05:31:12.407Z,30.40
2023-02-01T05:32:22.027Z,32.70
2023-02-01T05:33:19.480Z,34.30
2023-02-01T05:34:22.212Z,33.55
2023-02-01T05:35:25.284Z,33.30
2023-02-01T05:36:28.328Z,33.40
2023-02-01T05:37:31.381Z,33.18
2023-02-01T05:38:34.333Z,33.50
2023-02-01T05:39:38.630Z,33.50
2023-02-01T05:40:41.525Z,34.40
2023-02-01T05:41:44.342Z,33.20
2023-02-01T05:42:47.282Z,32.36
2023-02-01T05:43:50.058Z,33.10
2023-02-01T05:44:52.503Z,33.60
2023-02-01T05:45:54.852Z,32.10
2023-02-01T05:46:58.600Z,33.10
2023-02-01T05:48:01.322Z,31.20
2023-02-01T05:49:05.857Z,31.00
2023-02-01T05:50:10.188Z,33.00
2023-02-01T05:51:13.826Z,30.60
2023-02-01T05:52:19.089Z,31.70
2023-02-01T09:13:27.798Z,14.70
2023-02-01T09:14:30.979Z,14.30
2023-02-01T09:15:33.712Z,15.60
2023-02-01T09:16:37.357Z,13.64
2023-02-01T09:17:42.828Z,13.90
2023-02-01T09:18:55.991Z,14.20
2023-02-01T09:19:49.657Z,12.80
2023-02-01T09:20:53.298Z,14.40
2023-02-01T09:21:57.345Z,12.60
2023-02-01T09:23:00.577Z,13.80
2023-02-01T09:24:05.578Z,14.60
2023-02-01T09:25:09.066Z,12.90
2023-02-01T09:26:15.053Z,12.00
2023-02-01T09:27:18.780Z,10.50
2023-02-01T09:28:21.162Z,13.90
2023-02-01T09:29:25.360Z,12.00
2023-02-01T09:30:30.420Z,12.70
2023-02-01T09:31:33.073Z,11.50
2023-02-01T09:32:36.850Z,14.50
2023-02-01T09:38:53.636Z,12.10
2023-02-01T09:44:49.892Z,12.90
2023-02-01T09:47:22.163Z,11.30
2023-02-01T09:48:32.545Z,11.50
2023-02-01T09:49:39.867Z,11.10
2023-02-01T09:50:44.203Z,11.90
2023-02-01T09:51:48.816Z,11.90
2023-02-01T09:53:05.909Z,13.10
2023-02-01T09:55:43.650Z,11.30
2023-02-01T09:57:01.646Z,12.40
2023-02-01T09:59:34.039Z,10.60
2023-02-01T10:00:40.090Z,12.90
2023-02-01T10:01:43.918Z,11.90
2023-02-01T10:02:46.449Z,14.50
2023-02-01T10:03:50.681Z,11.90
2023-02-01T10:04:55.361Z,13.00
2023-02-01T10:06:11.709Z,11.10
2023-02-01T10:07:28.092Z,14.60
2023-02-01T10:08:46.126Z,13.90
2023-02-01T10:10:07.807Z,12.50
2023-02-01T10:12:58.648Z,15.40
2023-02-01T10:14:11.659Z,14.40
2023-02-01T10:17:00.418Z,14.90
2023-02-01T10:18:27.757Z,15.40
2023-02-01T10:21:26.686Z,15.00
2023-02-01T10:23:13.395Z,14.80
2023-02-01T10:24:18.098Z,14.80
2023-02-01T10:25:32.592Z,15.40
2023-02-01T10:26:38.173Z,14.40
2023-02-01T10:27:42.027Z,14.70
2023-02-01T10:28:46.529Z,14.40
2023-02-01T10:31:06.553Z,16.70
2023-02-01T10:32:19.000Z,15.10
2023-02-01T10:33:35.401Z,14.10
2023-02-01T10:34:38.653Z,14.80
2023-02-01T10:35:43.777Z,14.90
2023-02-01T10:36:56.192Z,13.10
2023-02-01T10:38:02.084Z,14.10
2023-02-01T10:39:04.972Z,14.50
2023-02-01T10:41:38.937Z,5.60
2023-02-01T10:42:41.891Z,14.70
2023-02-01T10:43:44.238Z,14.90
2023-02-01T10:44:48.431Z,13.30
2023-02-01T10:45:50.857Z,13.50
2023-02-01T10:46:53.763Z,13.20
2023-02-01T10:47:58.623Z,14.64
2023-02-01T10:49:01.564Z,14.00
2023-02-01T10:50:31.935Z,10.40
2023-02-01T10:51:54.618Z,12.90
2023-02-01T10:53:09.553Z,12.00
2023-02-01T10:54:23.377Z,13.30
2023-02-01T10:55:34.827Z,12.40
2023-02-01T10:56:39.252Z,11.80
2023-02-01T10:57:42.524Z,12.30
2023-02-01T10:58:48.205Z,10.80
2023-02-01T10:59:50.818Z,12.60
2023-02-01T11:00:58.240Z,11.40
2023-02-01T11:02:03.139Z,10.60
2023-02-01T11:04:35.763Z,10.40
2023-02-01T11:05:46.257Z,10.60
2023-02-01T11:06:55.308Z,10.10
2023-02-01T11:08:00.141Z,1.50
2023-02-01T11:09:13.338Z,10.90
2023-02-01T11:10:38.492Z,10.80
2023-02-01T11:11:51.836Z,9.70
2023-02-01T11:12:54.332Z,10.90
2023-02-01T11:15:26.125Z,10.00
2023-02-01T11:17:44.694Z,6.40
2023-02-01T11:18:50.174Z,11.10
2023-02-01T11:20:01.043Z,10.30
2023-02-01T11:21:04.603Z,11.10
2023-02-01T11:22:06.961Z,10.80
2023-02-01T11:23:20.494Z,11.90
2023-02-01T11:24:32.856Z,11.50
2023-02-01T11:25:35.326Z,12.30
2023-02-01T11:26:43.242Z,11.90
2023-02-01T11:27:54.481Z,11.90
2023-02-01T11:28:54.914Z,11.40
2023-02-01T11:30:00.236Z,11.20
2023-02-01T11:31:04.217Z,12.20
2023-02-01T11:32:06.674Z,11.30
2023-02-01T11:34:49.837Z,9.50
2023-02-01T11:35:53.234Z,13.40
2023-02-01T11:36:57.125Z,13.10
2023-02-01T11:38:00.187Z,10.90
2023-02-01T11:39:16.714Z,9.80
2023-02-01T11:41:47.632Z,12.40
2023-02-01T11:43:02.260Z,11.70
2023-02-01T11:44:08.476Z,12.00
2023-02-01T11:45:21.060Z,11.00
2023-02-01T11:46:31.345Z,13.00
2023-02-01T11:47:42.158Z,10.60
2023-02-01T11:48:44.623Z,11.00
2023-02-01T11:49:50.886Z,10.70
2023-02-01T11:51:05.479Z,12.50
2023-02-01T11:52:26.034Z,10.30
2023-02-01T11:53:47.521Z,9.00
2023-02-01T11:54:54.583Z,10.80
2023-02-01T11:56:24.819Z,9.80
2023-02-01T11:57:36.339Z,7.60
2023-02-01T11:59:00.569Z,11.00
2023-02-01T12:00:14.390Z,11.70
2023-02-01T12:01:27.234Z,10.30
2023-02-01T12:03:08.643Z,9.90
2023-02-01T12:04:47.627Z,11.20
2023-02-01T12:07:39.932Z,10.00
2023-02-01T12:09:17.416Z,11.00
2023-02-01T12:12:02.965Z,10.20
2023-02-01T12:14:36.260Z,10.70
2023-02-01T12:15:48.663Z,11.40
2023-02-01T12:17:19.117Z,10.40
2023-02-01T12:18:49.286Z,10.30
2023-02-01T12:20:07.552Z,12.70
2023-02-01T12:21:24.021Z,7.30
2023-02-01T12:23:05.044Z,7.50
2023-02-01T12:24:20.214Z,9.50
2023-02-01T12:27:07.804Z,11.20
2023-02-01T12:28:13.911Z,9.40
2023-02-01T12:29:39.022Z,11.90
2023-02-01T12:32:25.667Z,7.60
2023-02-01T12:33:57.685Z,11.90
2023-02-01T12:35:13.391Z,8.00
2023-02-01T12:36:38.062Z,11.10
2023-02-01T12:38:02.749Z,11.40
2023-02-01T12:39:26.786Z,12.20
2023-02-01T12:40:51.367Z,12.60
2023-02-01T12:42:02.965Z,12.20
2023-02-01T12:43:19.975Z,11.70
2023-02-01T12:44:30.135Z,11.90
2023-02-01T12:46:54.853Z,11.50
2023-02-01T12:48:37.773Z,7.80
2023-02-01T12:49:56.682Z,11.10
2023-02-01T12:52:36.260Z,11.10
2023-02-01T12:53:47.868Z,10.80
2023-02-01T12:56:18.994Z,9.70
2023-02-01T12:57:28.268Z,10.70
2023-02-01T12:58:37.111Z,10.50
2023-02-01T12:59:55.982Z,10.00
2023-02-01T13:01:04.549Z,10.10
2023-02-01T13:02:13.561Z,9.80
2023-02-01T13:03:25.600Z,9.80
2023-02-01T13:04:35.151Z,10.60
2023-02-01T13:05:59.197Z,10.60
2023-02-01T13:07:09.219Z,10.00
2023-02-01T13:08:16.856Z,10.00
2023-02-01T13:09:35.813Z,10.40
2023-02-01T13:11:05.295Z,11.30
2023-02-01T13:12:14.020Z,10.10
2023-02-01T13:13:23.012Z,9.20
2023-02-01T13:14:32.059Z,10.00
2023-02-01T13:17:01.381Z,7.80
2023-02-01T13:19:43.964Z,8.70
2023-02-01T13:21:16.788Z,9.90
2023-02-01T13:22:34.707Z,11.10
2023-02-01T13:23:38.838Z,8.80
2023-02-01T13:24:47.745Z,10.70
2023-02-01T13:25:51.498Z,9.70
2023-02-01T13:26:55.604Z,10.20
2023-02-01T13:28:04.744Z,11.30
2023-02-01T13:29:07.769Z,9.70
2023-02-01T13:30:16.324Z,9.60
2023-02-01T13:31:41.219Z,11.10
2023-02-01T13:33:53.643Z,11.30
2023-02-01T13:34:56.801Z,9.40
2023-02-01T13:36:14.287Z,11.20
2023-02-01T13:38:56.011Z,10.70
2023-02-01T13:40:31.529Z,11.10
2023-02-01T13:42:57.974Z,9.60
2023-02-01T13:45:18.195Z,10.70
2023-02-01T13:46:24.022Z,10.90
2023-02-01T13:47:37.703Z,11.90
2023-02-01T13:48:50.046Z,12.30
2023-02-01T13:49:53.548Z,11.00
2023-02-01T13:50:59.000Z,10.90
2023-02-01T13:52:02.108Z,9.90
2023-02-01T13:53:21.066Z,10.20
2023-02-01T13:54:33.562Z,10.70
2023-02-01T15:55:54.005Z,13.80
2023-02-01T15:56:57.019Z,12.70
2023-02-01T15:57:59.492Z,13.10
2023-02-01T15:59:02.759Z,13.70
2023-02-01T16:00:09.246Z,12.60
2023-02-01T16:01:15.457Z,15.80
2023-02-01T16:02:39.918Z,15.50
2023-02-01T16:03:44.392Z,15.90
2023-02-01T16:04:48.519Z,17.90
2023-02-01T16:05:58.583Z,16.70
2023-02-01T16:07:05.086Z,16.70
2023-02-01T16:09:44.894Z,18.00
2023-02-01T16:10:49.461Z,18.20
2023-02-01T16:11:57.551Z,19.80
2023-02-01T16:13:02.096Z,19.10
2023-02-01T16:14:04.466Z,20.90
2023-02-01T16:15:08.091Z,20.00
2023-02-01T16:16:13.538Z,20.30
2023-02-01T16:17:16.086Z,16.60
2023-02-01T16:18:19.268Z,21.30
2023-02-01T16:19:23.667Z,21.80
2023-02-01T16:20:27.156Z,20.30
2023-02-01T16:21:29.772Z,19.90
2023-02-01T16:22:32.426Z,20.80
2023-02-01T16:23:38.756Z,20.45
2023-02-01T16:24:41.342Z,20.30
2023-02-01T16:25:44.151Z,19.40
2023-02-01T16:26:48.097Z,20.90
2023-02-01T16:27:52.085Z,17.30
2023-02-01T16:28:55.274Z,19.20
2023-02-01T16:29:57.762Z,21.80
2023-02-01T16:31:01.014Z,19.50
2023-02-01T16:32:05.995Z,19.82
2023-02-01T16:33:14.515Z,17.80
2023-02-01T16:34:20.811Z,20.80
2023-02-01T16:35:26.431Z,18.90
2023-02-01T16:36:33.083Z,19.90
2023-02-01T16:37:37.176Z,18.30
2023-02-01T16:38:45.271Z,18.20
2023-02-01T16:40:12.429Z,19.00
2023-02-01T16:41:33.812Z,17.90
2023-02-01T16:42:43.262Z,18.50
2023-02-01T16:44:04.656Z,18.80
2023-02-01T16:46:36.305Z,18.60
2023-02-01T16:49:00.626Z,10.70
2023-02-01T16:50:17.090Z,14.40
2023-02-01T16:51:11.276Z,18.20
2023-02-01T16:52:20.114Z,17.10
2023-02-01T16:53:26.184Z,18.40
2023-02-01T16:54:30.225Z,17.00
2023-02-01T16:55:34.718Z,19.10
2023-02-01T16:56:38.659Z,18.20
2023-02-01T16:57:42.633Z,19.30
2023-02-01T16:58:48.105Z,14.00
2023-02-01T16:59:52.096Z,18.10
2023-02-01T17:00:55.766Z,18.10
2023-02-01T17:02:00.212Z,20.20
2023-02-01T17:03:03.249Z,19.40
2023-02-01T17:04:05.748Z,18.90
2023-02-01T17:05:09.093Z,18.40
2023-02-01T17:08:06.408Z,18.30
2023-02-01T17:09:10.015Z,17.00
2023-02-01T17:10:18.957Z,19.20
2023-02-01T17:11:22.039Z,17.60
2023-02-01T17:12:31.198Z,18.20
2023-02-01T17:13:34.197Z,17.30
2023-02-01T17:14:39.998Z,15.27
2023-02-01T17:15:47.324Z,17.60
2023-02-01T17:16:50.002Z,18.60
2023-02-01T17:17:54.866Z,17.20
2023-02-01T17:19:00.925Z,9.60
2023-02-01T17:20:04.963Z,18.30
2023-02-01T17:21:09.954Z,17.40
2023-02-01T17:22:14.788Z,19.90
2023-02-01T17:23:18.269Z,18.50
2023-02-01T17:24:23.868Z,18.40
2023-02-01T17:25:28.779Z,18.50
2023-02-01T17:26:33.661Z,17.40
2023-02-01T17:27:38.711Z,17.30
2023-02-01T17:28:41.323Z,17.80
2023-02-01T17:29:46.659Z,14.40
2023-02-01T17:30:50.465Z,17.30
2023-02-01T17:31:55.361Z,16.10
2023-02-01T17:32:58.434Z,19.40
2023-02-01T17:34:01.432Z,16.50
2023-02-01T17:35:06.941Z,18.70
2023-02-01T17:36:14.203Z,18.00
2023-02-01T17:37:27.712Z,18.30
2023-02-01T17:38:33.617Z,19.10
2023-02-01T17:39:55.929Z,18.00
2023-02-01T17:40:59.876Z,18.70
2023-02-01T17:42:05.678Z,17.20
2023-02-01T17:43:18.939Z,19.70
2023-02-01T17:44:23.052Z,18.30
2023-02-01T17:45:38.078Z,19.30
2023-02-01T17:46:42.859Z,19.50
2023-02-01T17:47:48.255Z,18.60
2023-02-01T17:48:53.115Z,18.60
2023-02-01T17:49:57.835Z,17.40
2023-02-01T17:51:01.070Z,17.50
2023-02-01T17:52:06.153Z,18.50
2023-02-01T17:53:12.022Z,19.40
2023-02-01T17:54:17.476Z,15.80
2023-02-01T17:55:23.446Z,16.40
2023-02-01T17:56:26.272Z,18.10
2023-02-01T17:57:28.806Z,18.20
2023-02-01T17:58:32.971Z,19.70
2023-02-01T17:59:35.784Z,19.20
2023-02-01T18:00:40.040Z,17.45
2023-02-01T18:01:44.474Z,18.10
2023-02-01T18:02:47.933Z,17.90
2023-02-01T18:03:51.940Z,19.50
2023-02-01T18:04:55.391Z,18.10
2023-02-01T18:06:02.040Z,18.10
2023-02-01T18:07:05.742Z,15.10
2023-02-01T18:08:08.971Z,16.40
2023-02-01T18:09:12.642Z,18.80
2023-02-01T18:10:16.464Z,16.10
2023-02-01T18:11:21.636Z,17.30
2023-02-01T18:12:25.966Z,18.60
2023-02-01T18:13:29.674Z,17.60
2023-02-01T18:14:35.286Z,18.00
2023-02-01T18:15:40.314Z,14.70
2023-02-01T18:16:46.372Z,17.90
2023-02-01T18:17:50.244Z,18.30
2023-02-01T18:18:53.059Z,10.50
2023-02-01T18:19:56.671Z,14.09
2023-02-01T18:21:00.596Z,19.60
2023-02-01T18:23:20.642Z,14.80
2023-02-01T18:24:26.429Z,20.30
2023-02-01T18:25:33.019Z,17.80
2023-02-01T18:26:36.883Z,17.90
2023-02-01T18:27:39.366Z,16.70
2023-02-01T18:28:44.022Z,14.90
2023-02-01T18:29:46.962Z,17.27
2023-02-01T18:30:51.049Z,19.30
2023-02-01T18:31:55.866Z,18.60
2023-02-01T18:32:59.412Z,18.80
2023-02-01T18:34:03.495Z,18.60
2023-02-01T18:36:31.475Z,16.70
2023-02-01T18:37:34.405Z,15.36
2023-02-01T18:38:37.922Z,16.20
2023-02-01T18:39:40.770Z,17.70
2023-02-01T18:40:49.926Z,14.82
2023-02-01T18:41:52.691Z,18.40
2023-02-01T18:42:56.113Z,16.82
2023-02-01T18:43:59.888Z,17.50
2023-02-01T18:45:03.458Z,16.60
2023-02-01T18:46:06.742Z,17.20
2023-02-01T18:47:09.227Z,18.00
2023-02-01T18:48:12.368Z,19.20
2023-02-01T18:49:19.594Z,17.50
2023-02-01T18:50:22.510Z,13.90
2023-02-01T18:51:26.445Z,17.90
2023-02-01T18:52:28.939Z,16.70
2023-02-01T18:53:32.497Z,15.40
2023-02-01T18:54:35.987Z,12.50
2023-02-01T18:55:38.499Z,16.40
2023-02-01T18:56:42.718Z,15.40
2023-02-01T18:57:45.609Z,16.50
2023-02-01T18:58:49.113Z,16.27
2023-02-01T18:59:52.611Z,16.60
2023-02-01T19:00:57.656Z,16.40
2023-02-01T19:02:00.116Z,17.40
2023-02-01T19:03:04.609Z,14.30
2023-02-01T19:04:23.529Z,14.90
2023-02-01T19:05:12.828Z,16.40
2023-02-01T19:06:16.416Z,15.30
2023-02-01T19:07:21.433Z,15.50
2023-02-01T19:08:25.499Z,16.50
2023-02-01T19:09:30.939Z,16.60
2023-02-01T19:10:36.188Z,16.30
2023-02-01T19:11:39.582Z,18.40
2023-02-01T19:12:42.879Z,16.50
2023-02-01T19:13:45.611Z,17.20
2023-02-01T19:14:48.049Z,17.70
2023-02-01T19:15:52.680Z,17.00
2023-02-01T19:16:57.362Z,15.50
2023-02-01T19:18:00.195Z,15.20
2023-02-01T19:19:02.879Z,17.00
2023-02-01T19:20:08.424Z,14.73
2023-02-01T19:21:13.031Z,15.90
2023-02-01T19:22:17.303Z,16.60
2023-02-01T19:23:19.954Z,15.50
2023-02-01T19:24:24.446Z,16.10
2023-02-01T19:25:30.886Z,17.40
2023-02-01T19:26:33.899Z,13.70
2023-02-01T19:27:36.455Z,14.10
2023-02-01T19:28:40.887Z,15.90
2023-02-01T19:29:45.530Z,16.50
2023-02-01T19:30:49.361Z,16.00
2023-02-01T19:31:52.174Z,18.10
2023-02-01T19:32:55.422Z,16.80
2023-02-01T19:34:00.980Z,16.10
2023-02-01T19:35:04.871Z,16.70
2023-02-01T19:36:10.228Z,16.00
2023-02-01T19:37:12.881Z,16.70
2023-02-01T19:38:15.997Z,16.30
2023-02-01T19:39:19.923Z,16.50
2023-02-01T19:40:24.458Z,17.50
2023-02-01T19:41:27.374Z,16.70
2023-02-01T19:42:31.424Z,18.60
2023-02-01T19:43:36.693Z,17.40
2023-02-01T19:44:40.433Z,17.50
2023-02-01T19:45:44.089Z,18.30
2023-02-01T19:46:47.604Z,16.90
2023-02-01T19:47:50.234Z,20.50
2023-02-01T19:48:54.475Z,16.90
2023-02-01T19:49:58.045Z,18.00
2023-02-01T19:51:01.743Z,16.40
2023-02-01T19:52:06.621Z,18.00
2023-02-01T19:53:13.261Z,18.00
2023-02-01T19:54:16.916Z,18.40
2023-02-01T19:55:19.821Z,16.00
2023-02-01T19:56:22.563Z,18.82
2023-02-01T19:57:25.674Z,18.40
2023-02-01T19:58:30.254Z,18.90
2023-02-01T19:59:34.374Z,17.70
2023-02-01T20:00:37.985Z,18.40
2023-02-01T20:01:44.098Z,17.90
2023-02-01T20:02:49.175Z,18.50
2023-02-01T20:03:52.674Z,17.30
2023-02-01T20:04:56.940Z,18.60
2023-02-01T20:06:01.109Z,20.00
2023-02-01T20:07:04.794Z,18.60
2023-02-01T20:08:07.813Z,18.70
2023-02-01T20:09:10.758Z,18.60
2023-02-01T20:10:15.668Z,16.70
2023-02-01T20:11:20.744Z,16.20
2023-02-01T20:12:23.535Z,19.00
2023-02-01T20:13:26.371Z,11.80
2023-02-01T20:14:29.916Z,19.30
2023-02-01T20:15:32.570Z,17.40
2023-02-01T20:16:37.319Z,16.60
2023-02-01T20:17:41.915Z,18.70
2023-02-01T20:18:45.641Z,19.30
2023-02-01T20:19:50.048Z,19.90
2023-02-01T20:20:59.412Z,18.50
2023-02-01T20:22:02.490Z,16.10
2023-02-01T20:23:09.087Z,17.80
2023-02-01T20:24:14.136Z,18.10
2023-02-01T20:25:17.111Z,19.30
2023-02-01T20:26:22.773Z,18.00
2023-02-01T20:27:25.701Z,17.10
2023-02-01T20:28:30.172Z,20.82
2023-02-01T20:29:33.964Z,20.10
2023-02-01T20:30:36.540Z,18.40
2023-02-01T20:31:39.557Z,15.80
2023-02-01T20:32:42.780Z,20.30
2023-02-01T20:33:45.677Z,17.10
2023-02-01T20:34:51.322Z,20.30
2023-02-01T20:35:54.187Z,20.10
2023-02-01T20:38:11.695Z,18.60
2023-02-01T20:39:14.178Z,19.70
2023-02-01T20:40:20.067Z,18.70
2023-02-01T20:41:25.237Z,19.70
2023-02-01T20:42:27.696Z,19.90
2023-02-01T20:43:30.769Z,19.40
2023-02-01T20:44:33.613Z,20.50
2023-02-01T20:45:41.134Z,19.60
2023-02-01T20:46:44.535Z,19.00
2023-02-01T20:47:51.910Z,20.50
2023-02-01T20:48:54.403Z,17.50
2023-02-01T20:49:58.701Z,19.40
2023-02-01T20:51:01.265Z,20.00
2023-02-01T20:52:04.492Z,19.50
2023-02-01T20:53:06.984Z,20.60
2023-02-01T20:54:09.796Z,21.00
2023-02-01T20:55:13.274Z,20.40
2023-02-01T20:56:16.423Z,20.50
2023-02-01T20:57:19.971Z,20.60
2023-02-01T20:58:22.217Z,20.60
2023-02-01T20:59:24.851Z,15.60
2023-02-01T21:00:27.622Z,21.50
2023-02-01T21:01:30.613Z,20.40
2023-02-01T21:02:33.088Z,22.00
2023-02-01T21:03:35.998Z,20.80
2023-02-01T21:04:38.565Z,20.80
2023-02-01T21:05:52.207Z,20.80
2023-02-01T21:07:00.837Z,21.30
2023-02-01T21:08:02.569Z,21.50
2023-02-01T21:09:05.738Z,20.80
2023-02-01T21:10:10.305Z,21.27
2023-02-01T21:11:15.181Z,21.00
2023-02-01T21:12:17.529Z,19.90
2023-02-01T21:13:21.506Z,21.20
2023-02-01T21:14:23.899Z,22.30
2023-02-01T21:15:26.968Z,20.10
2023-02-01T21:16:30.571Z,20.90
2023-02-01T21:17:33.602Z,21.50
2023-02-01T21:18:36.355Z,21.90